createdAt,value
2022-12-27T00:01:14.602Z,100776.16
2022-12-27T00:03:42.101Z,100800.47
2022-12-27T00:06:13.935Z,100797.78
2022-12-27T00:08:41.419Z,100801.38
2022-12-27T00:11:09.293Z,100756.38
2022-12-27T00:13:36.770Z,100797.84
2022-12-27T00:16:05.224Z,100804.94
2022-12-27T00:18:34.000Z,100804.94
2022-12-27T00:21:01.895Z,100804.13
2022-12-27T00:23:32.146Z,100782.47
2022-12-27T00:26:01.277Z,100760.84
2022-12-27T00:28:30.587Z,100784.84
2022-12-27T00:30:58.072Z,100762.41
2022-12-27T00:33:25.633Z,100774.41
2022-12-27T00:35:54.339Z,100748.56
2022-12-27T00:38:21.749Z,100783.22
2022-12-27T00:40:49.144Z,100769.59
2022-12-27T00:43:16.572Z,100789.47
2022-12-27T00:45:44.290Z,100792.13
2022-12-27T00:48:11.719Z,100804.38
2022-12-27T00:50:40.041Z,100796.47
2022-12-27T00:53:08.861Z,100798.25
2022-12-27T00:55:36.372Z,100700.22
2022-12-27T00:58:03.850Z,100834.59
2022-12-27T01:00:31.343Z,100774.84
2022-12-27T01:02:58.763Z,100816.78
2022-12-27T01:05:26.174Z,100826.47
2022-12-27T01:07:53.580Z,100770.25
2022-12-27T01:10:22.283Z,100822.13
2022-12-27T01:12:49.817Z,100819.53
2022-12-27T01:15:17.216Z,100829.19
2022-12-27T01:17:44.643Z,100827.44
2022-12-27T01:20:12.102Z,100835.34
2022-12-27T01:22:39.551Z,100749.00
2022-12-27T01:25:07.981Z,100839.75
2022-12-27T01:27:36.705Z,100826.06
2022-12-27T01:30:04.252Z,100838.94
2022-12-27T01:32:33.293Z,100840.69
2022-12-27T01:35:00.678Z,100833.66
2022-12-27T01:37:28.422Z,100840.69
2022-12-27T01:39:55.836Z,100752.81
2022-12-27T01:42:52.553Z,100846.03
2022-12-27T01:45:21.568Z,100846.09
2022-12-27T01:47:52.617Z,100824.88
2022-12-27T01:50:27.079Z,100811.72
2022-12-27T01:52:58.725Z,100858.41
2022-12-27T01:55:29.681Z,100778.13
2022-12-27T01:57:59.474Z,100852.28
2022-12-27T02:00:28.205Z,100869.84
2022-12-27T02:02:55.641Z,100830.13
2022-12-27T02:05:23.135Z,100703.59
2022-12-27T02:08:09.849Z,100774.78
2022-12-27T02:10:37.275Z,100792.84
2022-12-27T02:13:05.324Z,100857.66
2022-12-27T02:15:34.030Z,100700.53
2022-12-27T02:18:01.441Z,100861.22
2022-12-27T02:20:32.251Z,100735.06
2022-12-27T02:23:53.546Z,100826.66
2022-12-27T02:26:49.152Z,100857.78
2022-12-27T02:29:23.740Z,100835.53
2022-12-27T02:31:54.219Z,100858.66
2022-12-27T02:34:23.978Z,100881.50
2022-12-27T02:36:53.016Z,100708.78
2022-12-27T02:39:20.454Z,100868.41
2022-12-27T02:42:05.845Z,100846.81
2022-12-27T02:44:52.423Z,100878.97
2022-12-27T02:47:38.399Z,100785.59
2022-12-27T02:50:24.368Z,100826.25
2022-12-27T02:53:05.008Z,100748.53
2022-12-27T02:56:04.165Z,100863.56
2022-12-27T02:58:33.287Z,100835.97
2022-12-27T03:01:24.298Z,100716.53
2022-12-27T03:03:58.580Z,100759.84
2022-12-27T03:06:43.870Z,100759.94
2022-12-27T03:09:35.642Z,100892.34
2022-12-27T03:12:21.115Z,100878.34
2022-12-27T03:15:05.928Z,100885.41
2022-12-27T03:17:36.333Z,100884.50
2022-12-27T03:20:22.441Z,100866.19
2022-12-27T03:23:18.656Z,100878.44
2022-12-27T03:25:46.071Z,100836.97
2022-12-27T03:28:32.413Z,100799.22
2022-12-27T03:31:20.408Z,100884.69
2022-12-27T03:33:49.859Z,100890.81
2022-12-27T03:36:36.390Z,100797.53
2022-12-27T03:39:06.193Z,100896.91
2022-12-27T03:41:53.891Z,100869.44
2022-12-27T03:44:26.900Z,100883.81
2022-12-27T03:46:55.406Z,100818.28
2022-12-27T03:49:25.997Z,100904.03
2022-12-27T03:51:55.245Z,100901.44
2022-12-27T03:54:26.305Z,100903.16
2022-12-27T03:56:55.486Z,100804.59
2022-12-27T03:59:22.881Z,100892.63
2022-12-27T04:01:50.377Z,100885.66
2022-12-27T04:04:17.805Z,100897.09
2022-12-27T04:06:46.518Z,100904.13
2022-12-27T04:09:31.612Z,100903.25
2022-12-27T04:12:16.830Z,100905.91
2022-12-27T04:15:01.672Z,100901.56
2022-12-27T04:17:46.847Z,100898.09
2022-12-27T04:20:32.094Z,100863.56
2022-12-27T04:23:18.587Z,100895.47
2022-12-27T04:26:03.894Z,100896.38
2022-12-27T04:28:48.606Z,100897.28
2022-12-27T04:31:34.020Z,100902.56
2022-12-27T04:34:19.554Z,100901.66
2022-12-27T04:36:47.065Z,100822.22
2022-12-27T04:39:15.772Z,100899.06
2022-12-27T04:42:00.470Z,100897.38
2022-12-27T04:44:45.914Z,100894.78
2022-12-27T04:47:31.191Z,100811.75
2022-12-27T04:50:15.960Z,100903.50
2022-12-27T04:53:00.877Z,100900.03
2022-12-27T04:55:30.025Z,100903.56
2022-12-27T04:57:57.679Z,100907.03
2022-12-27T05:00:43.644Z,100839.75
2022-12-27T05:03:12.282Z,100907.97
2022-12-27T05:05:39.766Z,100901.88
2022-12-27T05:08:25.241Z,100904.59
2022-12-27T05:11:11.803Z,100908.06
2022-12-27T05:13:59.284Z,100915.09
2022-12-27T05:16:26.728Z,100866.59
2022-12-27T05:18:54.314Z,100916.75
2022-12-27T05:21:21.688Z,100927.19
2022-12-27T05:24:06.803Z,100915.03
2022-12-27T05:26:35.654Z,100827.75
2022-12-27T05:29:03.079Z,100919.25
2022-12-27T05:31:30.595Z,100928.88
2022-12-27T05:33:58.089Z,100923.56
2022-12-27T05:36:25.635Z,100920.91
2022-12-27T05:38:53.052Z,100920.81
2022-12-27T05:41:20.497Z,100933.91
2022-12-27T05:43:49.227Z,100932.06
2022-12-27T05:46:17.376Z,100926.72
2022-12-27T05:48:44.826Z,100906.91
2022-12-27T05:51:13.821Z,100927.53
2022-12-27T05:53:41.208Z,100932.69
2022-12-27T05:56:08.941Z,100933.56
2022-12-27T06:01:02.068Z,100937.66
2022-12-27T06:03:29.791Z,100946.31
2022-12-27T06:06:01.447Z,100843.38
2022-12-27T06:08:29.074Z,100864.63
2022-12-27T06:11:03.594Z,100954.69
2022-12-27T06:13:31.262Z,100949.38
2022-12-27T06:16:00.114Z,100953.69
2022-12-27T06:18:29.670Z,100954.53
2022-12-27T06:21:02.213Z,100862.91
2022-12-27T06:23:29.648Z,100968.44
2022-12-27T06:25:57.039Z,100967.50
2022-12-27T06:28:24.420Z,100964.78
2022-12-27T06:30:51.815Z,100957.78
2022-12-27T06:33:19.211Z,100968.19
2022-12-27T06:35:47.900Z,100986.56
2022-12-27T06:38:15.314Z,100960.78
2022-12-27T06:40:42.690Z,100989.97
2022-12-27T06:43:10.102Z,100991.66
2022-12-27T06:45:37.476Z,100991.59
2022-12-27T06:48:05.245Z,101005.47
2022-12-27T06:53:01.830Z,101001.78
2022-12-27T06:55:29.214Z,101005.19
2022-12-27T06:57:56.604Z,101003.28
2022-12-27T07:00:23.982Z,101013.78
2022-12-27T07:02:51.420Z,101013.72
2022-12-27T07:05:18.859Z,101013.66
2022-12-27T07:07:46.240Z,101012.78
2022-12-27T07:10:14.950Z,101008.34
2022-12-27T07:12:42.350Z,101010.13
2022-12-27T07:15:10.309Z,100982.34
2022-12-27T07:17:37.796Z,101014.31
2022-12-27T07:20:05.612Z,101017.72
2022-12-27T07:22:32.995Z,101020.28
2022-12-27T07:25:00.380Z,101022.09
2022-12-27T07:27:29.073Z,101025.53
2022-12-27T07:29:56.492Z,101033.38
2022-12-27T07:32:23.917Z,101041.19
2022-12-27T07:34:51.318Z,101044.66
2022-12-27T07:37:18.708Z,101010.06
2022-12-27T07:39:46.327Z,101041.06
2022-12-27T07:42:13.746Z,101051.47
2022-12-27T07:44:42.547Z,101056.56
2022-12-27T07:47:09.938Z,101065.31
2022-12-27T07:49:37.346Z,101060.84
2022-12-27T07:52:04.931Z,101065.19
2022-12-27T07:54:32.308Z,101084.44
2022-12-27T07:56:59.735Z,101079.16
2022-12-27T07:59:27.395Z,101087.88
2022-12-27T08:02:04.946Z,101079.06
2022-12-27T08:04:35.157Z,101046.28
2022-12-27T08:07:03.271Z,101084.41
2022-12-27T08:09:32.045Z,101075.00
2022-12-27T08:11:59.440Z,101104.50
2022-12-27T08:14:26.819Z,101096.59
2022-12-27T08:16:55.619Z,101093.06
2022-12-27T08:19:23.061Z,101101.81
2022-12-27T08:21:50.451Z,101108.81
2022-12-27T08:24:17.875Z,101103.50
2022-12-27T08:26:45.262Z,101104.31
2022-12-27T08:29:12.678Z,101107.78
2022-12-27T08:31:40.229Z,101101.59
2022-12-27T08:34:08.937Z,101091.03
2022-12-27T08:36:54.747Z,101094.50
2022-12-27T08:39:23.194Z,101104.09
2022-12-27T08:41:50.611Z,101100.56
2022-12-27T08:44:18.005Z,101115.44
2022-12-27T08:46:45.841Z,101108.59
2022-12-27T08:49:14.530Z,101110.34
2022-12-27T08:51:41.942Z,101114.75
2022-12-27T08:54:09.393Z,101122.56
2022-12-27T08:56:36.802Z,101117.25
2022-12-27T08:59:04.254Z,101122.47
2022-12-27T09:01:32.508Z,101105.06
2022-12-27T09:03:59.944Z,101128.53
2022-12-27T09:06:28.711Z,101133.78
2022-12-27T09:08:56.234Z,101134.63
2022-12-27T09:11:24.872Z,101108.69
2022-12-27T09:13:52.597Z,101118.16
2022-12-27T09:16:21.160Z,101111.88
2022-12-27T09:18:49.417Z,101148.88
2022-12-27T09:21:17.633Z,101124.53
2022-12-27T09:23:46.469Z,101151.94
2022-12-27T09:26:14.698Z,101152.84
2022-12-27T09:28:42.158Z,101155.06
2022-12-27T09:31:09.757Z,101148.38
2022-12-27T09:33:37.251Z,101169.03
2022-12-27T09:36:05.359Z,101173.31
2022-12-27T09:38:32.746Z,101174.13
2022-12-27T09:41:02.412Z,101173.16
2022-12-27T09:43:36.338Z,101181.91
2022-12-27T09:46:03.758Z,101192.44
2022-12-27T09:48:33.484Z,101186.22
2022-12-27T09:51:02.919Z,101187.00
2022-12-27T09:53:34.469Z,101187.75
2022-12-27T09:56:03.165Z,101166.84
2022-12-27T09:58:39.189Z,101165.09
2022-12-27T10:01:15.764Z,101197.16
2022-12-27T10:03:43.172Z,101189.16
2022-12-27T10:06:16.270Z,101171.00
2022-12-27T10:08:45.995Z,101193.38
2022-12-27T10:11:36.007Z,101198.53
2022-12-27T10:14:06.842Z,101141.22
2022-12-27T10:16:37.311Z,101188.00
2022-12-27T10:19:13.004Z,101192.00
2022-12-27T10:21:42.258Z,101185.06
2022-12-27T10:24:15.927Z,101156.47
2022-12-27T10:26:44.623Z,101145.13
2022-12-27T10:29:14.985Z,101191.91
2022-12-27T10:31:43.120Z,101158.16
2022-12-27T10:34:10.989Z,101188.47
2022-12-27T10:36:38.471Z,101194.50
2022-12-27T10:39:07.011Z,101199.00
2022-12-27T10:41:39.448Z,101180.69
2022-12-27T10:44:10.362Z,101165.19
2022-12-27T10:46:38.150Z,101194.56
2022-12-27T10:49:22.259Z,101158.19
2022-12-27T10:51:49.989Z,101204.28
2022-12-27T10:54:17.824Z,101170.41
2022-12-27T10:56:45.644Z,101197.16
2022-12-27T10:59:16.738Z,101163.28
2022-12-27T11:01:45.832Z,101202.03
2022-12-27T11:04:20.083Z,101201.09
2022-12-27T11:06:49.847Z,101201.72
2022-12-27T11:09:31.428Z,101156.50
2022-12-27T11:12:17.446Z,101200.56
2022-12-27T11:14:56.719Z,101198.81
2022-12-27T11:17:25.003Z,101161.44
2022-12-27T11:19:52.419Z,101191.59
2022-12-27T11:22:19.829Z,101191.47
2022-12-27T11:24:48.035Z,101193.09
2022-12-27T11:27:21.920Z,101199.06
2022-12-27T11:29:49.291Z,101199.06
2022-12-27T11:32:18.045Z,101202.53
2022-12-27T11:34:46.608Z,101198.34
2022-12-27T11:37:16.052Z,101194.91
2022-12-27T11:39:44.333Z,101194.88
2022-12-27T11:42:17.211Z,101187.13
2022-12-27T11:44:46.196Z,101214.88
2022-12-27T11:47:15.682Z,101207.72
2022-12-27T11:49:56.991Z,101192.22
2022-12-27T11:52:52.228Z,101214.59
2022-12-27T11:55:39.848Z,101208.34
2022-12-27T11:58:35.556Z,101210.06
2022-12-27T12:01:15.288Z,101177.28
2022-12-27T12:04:04.581Z,101200.34
2022-12-27T12:06:38.188Z,101209.22
2022-12-27T12:09:23.078Z,101208.34
2022-12-27T12:12:01.930Z,101172.78
2022-12-27T12:14:55.919Z,101202.09
2022-12-27T12:17:35.900Z,101178.81
2022-12-27T12:20:36.052Z,101200.38
2022-12-27T12:23:09.277Z,101189.19
2022-12-27T12:25:53.031Z,101185.72
2022-12-27T12:28:59.888Z,101211.59
2022-12-27T12:32:02.595Z,101207.13
2022-12-27T12:34:41.970Z,101201.09
2022-12-27T12:37:15.346Z,101164.09
2022-12-27T12:39:55.364Z,101188.47
2022-12-27T12:42:23.148Z,101196.97
2022-12-27T12:45:12.132Z,101186.56
2022-12-27T12:48:03.301Z,101209.94
2022-12-27T12:50:37.426Z,101178.72
2022-12-27T12:53:23.077Z,101200.28
2022-12-27T12:56:01.882Z,101196.03
2022-12-27T12:58:46.101Z,101160.47
2022-12-27T13:01:24.979Z,101197.75
2022-12-27T13:04:12.540Z,101189.09
2022-12-27T13:07:14.263Z,101193.44
2022-12-27T13:09:49.697Z,101189.09
2022-12-27T13:12:20.567Z,101189.09
2022-12-27T13:15:13.994Z,101164.84
2022-12-27T13:17:45.692Z,101149.25
2022-12-27T13:20:23.040Z,101180.34
2022-12-27T13:22:57.720Z,101170.09
2022-12-27T13:25:28.934Z,101184.72
2022-12-27T13:28:02.015Z,101176.78
2022-12-27T13:30:31.293Z,101176.78
2022-12-27T13:33:10.978Z,101164.47
2022-12-27T13:35:55.936Z,101156.66
2022-12-27T13:38:31.265Z,101140.28
2022-12-27T13:41:10.902Z,101154.75
2022-12-27T13:43:50.937Z,101148.59
2022-12-27T13:46:42.087Z,101153.03
2022-12-27T13:49:31.198Z,101157.44
2022-12-27T13:52:02.143Z,101144.19
2022-12-27T13:55:14.342Z,101148.59
2022-12-27T13:57:54.755Z,101140.81
2022-12-27T14:00:24.635Z,101145.97
2022-12-27T14:03:20.010Z,101151.25
2022-12-27T14:06:06.591Z,101117.72
2022-12-27T14:08:51.408Z,101142.44
2022-12-27T14:11:28.157Z,101109.72
2022-12-27T14:13:55.548Z,101140.72
2022-12-27T14:16:29.864Z,101131.91
2022-12-27T14:19:07.149Z,101131.91
2022-12-27T14:22:00.091Z,101102.34
2022-12-27T14:24:48.816Z,101107.75
2022-12-27T14:27:54.369Z,101135.47
2022-12-27T14:30:47.083Z,101128.44
2022-12-27T14:33:32.106Z,101115.19
2022-12-27T14:36:27.250Z,101115.19
2022-12-27T14:39:09.765Z,101111.66
2022-12-27T14:42:00.159Z,101096.22
2022-12-27T14:44:50.832Z,101109.00
2022-12-27T14:47:46.408Z,101083.31
2022-12-27T14:50:44.763Z,101117.84
2022-12-27T14:53:44.122Z,101106.47
2022-12-27T14:56:17.237Z,101104.72
2022-12-27T14:58:50.638Z,101111.78
2022-12-27T15:01:24.426Z,101109.13
2022-12-27T15:04:00.051Z,101108.19
2022-12-27T15:06:41.163Z,101119.53
2022-12-27T15:09:11.156Z,101116.06
2022-12-27T15:11:49.902Z,101117.84
2022-12-27T15:14:30.765Z,101114.31
2022-12-27T15:17:02.151Z,101113.44
2022-12-27T15:19:41.278Z,101121.31
2022-12-27T15:22:12.610Z,101123.19
2022-12-27T15:24:47.206Z,101116.13
2022-12-27T15:27:20.210Z,101108.31
2022-12-27T15:29:54.811Z,101108.31
2022-12-27T15:32:26.551Z,101102.03
2022-12-27T15:35:05.118Z,101107.25
2022-12-27T15:38:12.429Z,101102.78
2022-12-27T15:40:53.375Z,101090.94
2022-12-27T15:43:30.878Z,101097.72
2022-12-27T15:46:06.745Z,101064.81
2022-12-27T15:48:53.619Z,101080.47
2022-12-27T15:51:26.159Z,101093.69
2022-12-27T15:54:15.324Z,101069.38
2022-12-27T15:56:45.448Z,101110.03
2022-12-27T15:59:31.734Z,101104.78
2022-12-27T16:02:16.128Z,101105.66
2022-12-27T16:04:48.692Z,101097.72
2022-12-27T16:07:36.004Z,101101.19
2022-12-27T16:10:45.749Z,101091.44
2022-12-27T16:13:42.246Z,101089.72
2022-12-27T16:16:26.561Z,101085.38
2022-12-27T16:19:18.969Z,101081.84
2022-12-27T16:21:47.295Z,101087.13
2022-12-27T16:24:17.335Z,101080.13
2022-12-27T16:26:56.041Z,101086.25
2022-12-27T16:29:27.955Z,101076.78
2022-12-27T16:32:14.631Z,101081.03
2022-12-27T16:34:42.001Z,101049.09
2022-12-27T16:37:22.482Z,101082.00
2022-12-27T16:39:56.984Z,101078.50
2022-12-27T16:42:25.295Z,101074.13
2022-12-27T16:45:02.745Z,101075.00
2022-12-27T16:47:56.256Z,101065.44
2022-12-27T16:50:40.490Z,101057.50
2022-12-27T16:53:16.809Z,101053.13
2022-12-27T16:55:55.442Z,101054.22
2022-12-27T16:58:25.066Z,101040.50
2022-12-27T17:00:53.834Z,101058.53
2022-12-27T17:03:43.825Z,101032.72
2022-12-27T17:06:48.968Z,101063.06
2022-12-27T17:09:49.569Z,101065.75
2022-12-27T17:12:20.513Z,101064.03
2022-12-27T17:14:47.938Z,101028.69
2022-12-27T17:17:18.925Z,101058.81
2022-12-27T17:19:48.163Z,101039.19
2022-12-27T17:22:16.456Z,101069.50
2022-12-27T17:24:43.976Z,101071.25
2022-12-27T17:27:16.862Z,101074.84
2022-12-27T17:30:05.062Z,101065.19
2022-12-27T17:32:53.987Z,101065.25
2022-12-27T17:35:28.753Z,101060.84
2022-12-27T17:38:03.947Z,101022.91
2022-12-27T17:40:33.382Z,101060.06
2022-12-27T17:43:25.924Z,101027.19
2022-12-27T17:45:55.475Z,101053.09
2022-12-27T17:48:26.799Z,101050.47
2022-12-27T17:50:55.208Z,101045.22
2022-12-27T17:53:40.759Z,101046.16
2022-12-27T17:56:34.131Z,101039.09
2022-12-27T17:59:09.748Z,101033.84
2022-12-27T18:01:39.474Z,101013.25
2022-12-27T18:04:08.258Z,101029.47
2022-12-27T18:06:37.062Z,101030.56
2022-12-27T18:09:04.614Z,101035.72
2022-12-27T18:11:32.442Z,101023.44
2022-12-27T18:14:00.636Z,101026.97
2022-12-27T18:16:34.109Z,101030.56
2022-12-27T18:19:02.944Z,101029.69
2022-12-27T18:21:32.028Z,101027.97
2022-12-27T18:23:59.425Z,101020.91
2022-12-27T18:26:36.060Z,100992.47
2022-12-27T18:29:03.661Z,101008.00
2022-12-27T18:31:33.472Z,101013.97
2022-12-27T18:34:03.248Z,101014.84
2022-12-27T18:36:33.730Z,101003.72
2022-12-27T18:39:01.681Z,100979.41
2022-12-27T18:41:29.751Z,100983.88
2022-12-27T18:44:00.341Z,101010.53
2022-12-27T18:46:29.654Z,100973.47
2022-12-27T18:48:57.127Z,101005.31
2022-12-27T18:51:32.048Z,100960.19
2022-12-27T18:54:00.109Z,100981.91
2022-12-27T18:56:30.645Z,100988.69
2022-12-27T18:59:02.998Z,100921.28
2022-12-27T19:01:33.736Z,100982.56
2022-12-27T19:04:24.691Z,100974.63
2022-12-27T19:06:56.293Z,100974.69
2022-12-27T19:09:24.777Z,100952.53
2022-12-27T19:11:53.044Z,100935.84
2022-12-27T19:14:20.585Z,100974.78
2022-12-27T19:16:49.539Z,100978.31
2022-12-27T19:19:18.057Z,100925.88
2022-12-27T19:21:45.431Z,100968.72
2022-12-27T19:24:35.304Z,100969.59
2022-12-27T19:27:15.725Z,100974.03
2022-12-27T19:29:50.742Z,100972.31
2022-12-27T19:32:18.499Z,100975.00
2022-12-27T19:34:47.025Z,100953.19
2022-12-27T19:37:14.475Z,100960.16
2022-12-27T19:39:43.772Z,100923.84
2022-12-27T19:42:13.074Z,100952.34
2022-12-27T19:44:40.461Z,100961.03
2022-12-27T19:47:10.794Z,100956.63
2022-12-27T19:49:43.090Z,100949.63
2022-12-27T19:52:12.500Z,100947.88
2022-12-27T19:54:39.908Z,100953.16
2022-12-27T19:57:10.035Z,100922.19
2022-12-27T19:59:37.258Z,100945.31
2022-12-27T20:02:04.771Z,100948.84
2022-12-27T20:04:32.859Z,100945.31
2022-12-27T20:07:00.656Z,100898.84
2022-12-27T20:09:28.210Z,100948.91
2022-12-27T20:11:55.641Z,100945.53
2022-12-27T20:14:24.331Z,100954.19
2022-12-27T20:16:51.816Z,100953.31
2022-12-27T20:19:20.014Z,100948.94
2022-12-27T20:21:47.699Z,100942.78
2022-12-27T20:24:15.388Z,100940.16
2022-12-27T20:26:42.853Z,100943.72
2022-12-27T20:29:10.274Z,100943.72
2022-12-27T20:31:44.771Z,100945.53
2022-12-27T20:34:12.944Z,100952.53
2022-12-27T20:36:41.369Z,100948.19
2022-12-27T20:39:09.588Z,100946.47
2022-12-27T20:41:37.055Z,100947.38
2022-12-27T20:44:04.922Z,100935.91
2022-12-27T20:46:32.377Z,100933.31
2022-12-27T20:49:01.182Z,100927.16
2022-12-27T20:51:31.577Z,100912.22
2022-12-27T20:54:00.311Z,100876.28
2022-12-27T20:56:28.135Z,100844.25
2022-12-27T20:58:55.589Z,100845.22
2022-12-27T21:01:23.778Z,100857.84
2022-12-27T21:03:51.280Z,100901.78
2022-12-27T21:06:22.787Z,100898.41
2022-12-27T21:08:56.308Z,100857.94
2022-12-27T21:11:26.650Z,100857.13
2022-12-27T21:13:54.075Z,100907.16
2022-12-27T21:16:22.245Z,100902.88
2022-12-27T21:18:49.803Z,100911.50
2022-12-27T21:21:19.770Z,100913.28
2022-12-27T21:23:48.601Z,100905.47
2022-12-27T21:26:17.354Z,100908.09
2022-12-27T21:28:44.779Z,100902.00
2022-12-27T21:31:12.468Z,100820.13
2022-12-27T21:33:39.942Z,100892.63
2022-12-27T21:36:08.976Z,100848.44
2022-12-27T21:38:36.527Z,100891.41
2022-12-27T21:41:06.707Z,100903.69
2022-12-27T21:43:34.071Z,100895.88
2022-12-27T21:46:06.147Z,100895.88
2022-12-27T21:48:33.601Z,100887.97
2022-12-27T21:51:05.128Z,100846.66
2022-12-27T21:53:32.515Z,100896.81
2022-12-27T21:55:59.983Z,100875.34
2022-12-27T21:58:29.991Z,100890.81
2022-12-27T22:01:08.102Z,100892.47
2022-12-27T22:03:36.978Z,100883.00
2022-12-27T22:06:10.222Z,100883.66
2022-12-27T22:08:37.699Z,100881.91
2022-12-27T22:11:05.123Z,100875.78
2022-12-27T22:13:33.861Z,100873.19
2022-12-27T22:16:01.948Z,100865.28
2022-12-27T22:18:31.523Z,100861.16
2022-12-27T22:21:00.168Z,100840.34
2022-12-27T22:23:27.567Z,100857.41
2022-12-27T22:25:54.960Z,100862.69
2022-12-27T22:28:22.345Z,100854.75
2022-12-27T22:30:51.062Z,100853.88
2022-12-27T22:33:18.491Z,100856.53
2022-12-27T22:35:45.876Z,100842.44
2022-12-27T22:38:13.246Z,100846.88
2022-12-27T22:40:45.786Z,100807.16
2022-12-27T22:43:14.441Z,100839.97
2022-12-27T22:45:42.107Z,100839.03
2022-12-27T22:48:10.791Z,100844.31
2022-12-27T22:50:38.288Z,100839.06
2022-12-27T22:53:05.697Z,100830.28
2022-12-27T22:55:33.151Z,100831.16
2022-12-27T22:58:00.540Z,100827.63
2022-12-27T23:00:27.929Z,100830.28
2022-12-27T23:02:55.321Z,100823.28
2022-12-27T23:05:24.022Z,100747.38
2022-12-27T23:08:05.117Z,100808.38
2022-12-27T23:10:34.802Z,100802.22
2022-12-27T23:13:02.204Z,100799.56
2022-12-27T23:15:29.613Z,100798.69
2022-12-27T23:17:56.988Z,100796.94
2022-12-27T23:20:25.712Z,100791.69
2022-12-27T23:22:53.258Z,100782.91
2022-12-27T23:25:20.636Z,100782.03
2022-12-27T23:27:48.035Z,100781.19
2022-12-27T23:30:15.968Z,100779.44
2022-12-27T23:32:43.337Z,100768.81
2022-12-27T23:35:10.725Z,100723.06
2022-12-27T23:37:39.419Z,100749.56
2022-12-27T23:40:08.062Z,100756.53
2022-12-27T23:42:35.561Z,100696.88
2022-12-27T23:45:03.061Z,100711.50
2022-12-27T23:47:30.429Z,100733.69
2022-12-27T23:49:57.839Z,100728.41
2022-12-27T23:52:25.225Z,100724.03
2022-12-27T23:54:53.980Z,100720.56
2022-12-27T23:57:22.819Z,100713.53
2022-12-27T23:59:51.439Z,100715.31
